Latest Weather Observations for Inverell RS

IDN60801

Issued at 10:04 pm EDT Wednesday 4 March 2015 (issued every 30 minutes, with the page automatically refreshed every 10 minutes)

About weather observations | Map of weather stations | Latest weather observations for NSW | Other Formats
Station Details ID: 056018 Name: INVERELL RESEARCH CENTRE Lat: -29.78 Lon: 151.08 Height: 664.0 m
Data from the previous 72 hours. | See also: Recent months at Inverell RS
Date/Time
EDT
Temp
°C
App
Temp
°C
Dew
Point
Rel
Hum
%
Delta-T
°C
Wind Press
QNH
hPa
Press
MSL
hPa
Rain
since 9 am
mm
Dir
 
Spd
km/h
Gust
km/h
Spd
kts
Gust
kts
04/10:00pm 26.1 25.2 15.9 53 6.4 NNW 15 17 8 9 1013.0 - 0.0
04/09:30pm 26.5 26.0 15.8 51 6.7 NNW 13 15 7 8 1013.1 - 0.0
04/09:00pm 26.9 26.4 15.8 50 7.0 NNW 13 15 7 8 1013.0 1009.9 0.0
04/08:30pm 27.6 27.0 14.5 44 8.1 NNW 11 13 6 7 1012.8 - 0.0
04/08:00pm 27.7 27.4 14.4 44 8.2 NW 9 11 5 6 1012.6 - 0.0
04/07:30pm 28.5 28.2 14.5 42 8.7 NW 9 11 5 6 1012.5 - 0.0
04/07:00pm 30.0 29.2 14.0 37 9.9 NW 11 15 6 8 1012.3 - 0.0
04/06:30pm 31.1 29.3 13.2 33 11.0 NW 15 22 8 12 1012.5 - 0.0
04/06:00pm 31.5 28.8 12.9 32 11.4 NNW 19 26 10 14 1012.6 1009.5 0.0
04/05:30pm 31.7 30.4 13.8 33 11.1 WNW 13 26 7 14 1012.8 - 0.0
04/05:00pm 31.6 30.6 14.6 35 10.7 WNW 13 24 7 13 1012.9 - 0.0
04/04:30pm 31.4 29.3 14.7 36 10.5 NW 19 32 10 17 1013.0 - 0.0
04/04:00pm 31.8 31.3 15.0 36 10.6 WNW 11 26 6 14 1013.3 - 0.0
04/03:30pm 31.1 28.9 14.3 36 10.5 NW 19 28 10 15 1013.6 - 0.0
04/03:00pm 30.8 29.8 15.5 39 9.7 NW 15 24 8 13 1014.1 1011.0 0.0
04/02:30pm 31.2 30.4 16.0 40 9.7 NW 15 28 8 15 1014.6 - 0.0
04/02:00pm 30.1 28.3 16.0 42 9.0 N 20 28 11 15 1015.2 - 0.0
04/01:30pm 30.4 29.7 16.4 43 9.0 NW 15 26 8 14 1015.6 - 0.0
04/01:00pm 29.3 28.1 16.1 44 8.4 NW 17 32 9 17 1016.3 - 0.0
04/12:30pm 28.8 28.7 17.0 49 7.6 NW 13 19 7 10 1016.6 - 0.0
04/12:00pm 28.1 26.8 15.9 47 7.7 NNW 17 26 9 14 1017.1 1014.1 0.0
04/11:30am 28.1 28.0 16.9 50 7.2 NNW 13 26 7 14 1017.5 - 0.0
04/11:00am 27.5 28.1 17.8 55 6.3 N 11 17 6 9 1017.7 - 0.0
04/10:30am 25.9 26.6 18.0 61 5.1 NNW 11 15 6 8 1017.7 - 0.0
04/10:00am 24.7 25.4 18.0 66 4.3 N 11 15 6 8 1017.7 - 0.0
04/09:30am 23.8 25.1 18.4 72 3.5 N 9 13 5 7 1017.6 - 0.0
04/09:00am 22.5 23.4 18.3 77 2.7 N 11 15 6 8 1017.5 1014.4 0.0
04/08:30am 21.6 22.8 18.3 81 2.1 N 9 13 5 7 1017.1 - 0.0
04/08:00am 20.6 22.4 18.7 89 1.2 N 7 11 4 6 1016.8 - 0.0
04/07:30am 19.5 21.3 18.2 92 0.8 N 6 7 3 4 1016.4 - 0.0
04/07:00am 18.4 21.0 17.6 95 0.5 CALM 0 0 0 0 1016.1 - 0.0
04/06:30am 18.6 19.9 17.6 94 0.6 N 7 9 4 5 1015.8 - 0.0
04/06:00am 18.8 20.3 17.7 93 0.7 N 6 7 3 4 1015.5 1012.5 0.0
04/05:30am 19.3 20.7 17.9 92 0.9 N 7 9 4 5 1015.3 - 0.0
04/05:00am 19.6 20.7 17.9 90 1.1 N 9 11 5 6 1015.1 - 0.0
04/04:30am 19.9 21.0 18.0 89 1.2 N 9 11 5 6 1015.1 - 0.0
04/04:00am 19.7 22.4 17.8 89 1.2 CALM 0 0 0 0 1015.3 - 0.0
04/03:30am 19.9 21.6 18.0 89 1.2 N 6 7 3 4 1015.2 - 0.0
04/03:00am 20.6 22.1 18.1 85 1.6 NNE 7 7 4 4 1015.4 1012.4 0.0
04/02:30am 21.0 22.6 18.2 84 1.8 NE 7 9 4 5 1015.6 - 0.0
04/02:00am 20.8 21.9 18.1 84 1.7 NE 9 11 5 6 1015.9 - 0.0
04/01:30am 21.3 23.1 18.2 82 2.0 NE 6 7 3 4 1016.3 - 0.0
04/01:00am 21.1 22.7 18.3 84 1.8 ENE 7 11 4 6 1016.5 - 0.0
04/12:30am 21.6 22.9 18.5 82 2.0 ENE 9 11 5 6 1016.6 - 0.0
04/12:00am 22.2 23.9 18.5 79 2.4 ENE 7 13 4 7 1016.6 1013.6 0.0
 
Date/Time
EDT
Temp
°C
App
Temp
°C
Dew
Point
Rel
Hum
%
Delta-T
°C
Wind Press
QNH
hPa
Press
MSL
hPa
Rain
since 9 am
mm
Dir
 
Spd
km/h
Gust
km/h
Spd
kts
Gust
kts
03/11:30pm 21.7 23.0 18.4 81 2.1 E 9 11 5 6 1016.6 - 0.0
03/11:00pm 22.3 23.0 17.1 72 3.3 SE 9 11 5 6 1016.7 - 0.0
03/10:30pm 22.8 23.7 16.2 66 4.1 ESE 6 13 3 7 1016.7 - 0.0
03/10:00pm 23.5 23.7 15.8 62 4.8 W 9 13 5 7 1016.4 - 0.0
03/09:30pm 26.2 25.6 14.7 49 7.1 W 11 15 6 8 1016.2 - 0.0
03/09:00pm 26.5 26.2 14.5 47 7.4 W 9 11 5 6 1016.0 1012.9 0.0
03/08:30pm 25.5 25.8 15.0 52 6.5 W 7 9 4 5 1015.6 - 0.0
03/08:00pm 25.5 25.9 15.2 53 6.4 W 7 7 4 4 1015.4 - 0.0
03/07:30pm 26.0 26.6 15.4 52 6.6 W 6 7 3 4 1015.1 - 0.0
03/07:00pm 27.6 29.6 16.1 49 7.3 CALM 0 7 0 4 1014.9 - 0.0
03/06:30pm 29.4 29.4 14.2 39 9.4 S 7 13 4 7 1014.8 - 0.0
03/06:00pm 30.3 30.2 13.8 36 10.2 SSW 7 11 4 6 1014.7 1011.6 0.0
03/05:30pm 30.4 30.2 14.8 38 9.8 WSW 9 13 5 7 1014.8 - 0.0
03/05:00pm 30.1 29.5 14.6 39 9.7 SSW 11 15 6 8 1014.9 - 0.0
03/04:30pm 30.0 29.2 14.0 37 9.9 S 11 19 6 10 1014.9 - 0.0
03/04:00pm 29.6 29.4 14.7 40 9.3 SSW 9 15 5 8 1015.0 - 0.0
03/03:30pm 29.8 29.5 15.4 41 9.1 WSW 11 20 6 11 1015.4 - 0.0
03/03:00pm 29.5 29.3 14.8 40 9.2 SW 9 22 5 12 1016.0 1012.9 0.0
03/02:30pm 29.2 29.2 15.2 42 8.8 SW 9 17 5 9 1016.6 - 0.0
03/02:00pm 28.8 27.4 14.4 41 8.9 W 15 26 8 14 1017.0 - 0.0
03/01:30pm 29.1 28.8 15.4 43 8.6 WNW 11 17 6 9 1017.0 - 0.0
03/01:00pm 28.1 27.6 14.9 44 8.2 WNW 11 22 6 12 1017.5 - 0.0
03/12:30pm 27.1 26.8 15.4 48 7.3 WSW 11 19 6 10 1017.8 - 0.0
03/12:00pm 26.3 26.3 15.2 50 6.9 SW 9 17 5 9 1018.3 1015.3 0.0
03/11:30am 25.8 26.7 16.1 55 6.1 E 6 13 3 7 1018.7 - 0.0
03/11:00am 25.1 25.3 15.8 56 5.8 ESE 9 13 5 7 1018.8 - 0.0
03/10:30am 24.2 24.4 15.8 59 5.2 ENE 9 11 5 6 1018.8 - 0.0
03/10:00am 22.4 22.6 14.8 62 4.6 N 7 11 4 6 1018.7 - 0.0
03/09:30am 21.7 21.7 15.1 66 4.0 NE 9 11 5 6 1018.7 - 0.0
03/09:00am 20.8 21.2 15.2 70 3.4 N 7 13 4 7 1018.5 1015.5 0.0
03/08:30am 20.0 21.4 15.4 75 2.8 ENE 2 7 1 4 1018.5 - 0.0
03/08:00am 19.2 19.4 14.7 75 2.7 E 7 11 4 6 1018.1 - 0.0
03/07:30am 17.4 17.5 14.4 82 1.8 ESE 7 9 4 5 1017.4 - 0.0
03/07:00am 16.2 16.0 13.6 84 1.5 SE 7 9 4 5 1017.2 - 0.0
03/06:30am 15.8 15.6 13.6 87 1.3 SE 7 9 4 5 1017.0 - 0.0
03/06:00am 16.5 17.6 13.4 82 1.8 CALM 0 0 0 0 1016.5 1013.5 0.0
03/05:30am 16.7 17.5 13.6 82 1.8 E 2 6 1 3 1016.2 - 0.0
03/05:00am 17.0 17.8 13.7 81 1.9 ENE 2 9 1 5 1015.9 - 0.0
03/04:30am 17.2 17.1 13.8 80 2.0 ENE 7 11 4 6 1016.1 - 0.0
03/04:00am 17.0 16.8 13.7 81 1.9 E 7 11 4 6 1016.2 - 0.0
03/03:30am 17.3 17.1 13.7 79 2.1 E 7 11 4 6 1016.4 - 0.0
03/03:00am 18.1 17.6 13.7 75 2.6 ENE 9 13 5 7 1016.5 1013.5 0.0
03/02:30am 18.1 17.6 13.8 76 2.5 NE 9 13 5 7 1016.7 - 0.0
03/02:00am 18.1 17.7 14.0 77 2.4 ENE 9 15 5 8 1017.1 - 0.0
03/01:30am 18.4 18.0 14.2 76 2.5 NE 9 13 5 7 1017.7 - 0.0
03/01:00am 18.7 18.4 14.3 75 2.6 NE 9 11 5 6 1018.0 - 0.0
03/12:30am 18.8 18.6 14.8 77 2.4 ENE 9 13 5 7 1018.0 - 0.0
03/12:00am 19.6 18.2 14.6 73 3.0 E 15 20 8 11 1018.0 1015.0 0.0
 
Date/Time
EDT
Temp
°C
App
Temp
°C
Dew
Point
Rel
Hum
%
Delta-T
°C
Wind Press
QNH
hPa
Press
MSL
hPa
Rain
since 9 am
mm
Dir
 
Spd
km/h
Gust
km/h
Spd
kts
Gust
kts
02/11:30pm 20.0 18.6 14.5 70 3.3 E 15 30 8 16 1018.1 - 0.0
02/11:00pm 20.3 18.1 14.3 68 3.6 E 19 28 10 15 1017.8 - 0.0
02/10:30pm 20.4 18.4 14.9 70 3.3 E 19 28 10 15 1017.7 - 0.0
02/10:00pm 20.7 18.6 15.1 70 3.4 E 20 28 11 15 1017.7 - 0.0
02/09:30pm 21.2 19.3 15.1 68 3.7 E 19 30 10 16 1017.4 - 0.0
02/09:00pm 22.0 19.6 15.3 65 4.1 E 22 33 12 18 1016.7 1013.7 0.0
02/08:30pm 23.3 20.5 15.3 60 4.9 E 24 33 13 18 1016.1 - 0.0
02/08:00pm 24.6 22.9 15.8 58 5.5 E 19 30 10 16 1015.3 - 0.0
02/07:30pm 26.1 25.4 15.3 51 6.7 ENE 13 20 7 11 1014.7 - 0.0
02/07:00pm 26.9 25.4 15.4 49 7.2 ENE 17 26 9 14 1014.2 - 0.0
02/06:30pm 28.2 26.6 15.1 44 8.2 ENE 17 22 9 12 1013.6 - 0.0
02/06:00pm 30.4 29.7 13.1 34 10.6 SE 9 13 5 7 1013.2 1010.1 0.0
02/05:30pm 30.4 30.5 12.6 33 10.8 NW 4 7 2 4 1013.1 - 0.0
02/05:00pm 30.1 29.3 12.8 34 10.5 SSE 9 13 5 7 1013.2 - 0.0
02/04:30pm 30.7 30.2 12.8 33 10.9 NE 7 11 4 6 1013.2 - 0.0
02/04:00pm 30.4 29.1 12.6 33 10.8 WSW 11 15 6 8 1013.3 - 0.0
02/03:30pm 30.5 29.4 13.0 34 10.7 SW 11 17 6 9 1013.5 - 0.0
02/03:00pm 30.4 29.8 13.5 35 10.4 W 9 17 5 9 1013.8 1010.9 0.0
02/02:30pm 29.7 29.8 14.0 38 9.7 NW 6 13 3 7 1014.5 - 0.0
02/02:00pm 29.1 29.3 14.2 40 9.2 E 6 11 3 6 1014.8 - 0.0
02/01:30pm 29.4 29.3 15.0 41 9.0 ESE 9 15 5 8 1015.4 - 0.0
02/01:00pm 28.6 29.2 15.2 44 8.4 NW 6 11 3 6 1015.8 - 0.0
02/12:30pm 27.7 27.7 14.2 43 8.3 E 7 13 4 7 1016.2 - 0.0
02/12:00pm 27.1 26.7 15.2 48 7.4 E 11 17 6 9 1016.5 1013.5 0.0
02/11:30am 26.3 25.8 14.8 49 7.1 ENE 11 19 6 10 1016.8 - 0.0
02/11:00am 25.5 26.0 15.5 54 6.2 NE 7 11 4 6 1016.9 - 0.0
02/10:30am 24.5 24.1 15.3 56 5.7 ENE 11 17 6 9 1017.1 - 0.0
02/10:00am 23.6 22.9 14.2 55 5.7 NE 11 15 6 8 1017.0 - 0.0
02/09:30am 22.9 21.9 14.5 59 5.1 E 13 15 7 8 1016.9 - 0.0
02/09:00am 21.7 21.7 15.3 67 3.9 E 9 9 5 5 1016.6 1013.6 0.0
02/08:30am 20.8 20.7 15.0 69 3.5 ESE 9 15 5 8 1016.2 - 0.0
02/08:00am 20.2 20.5 14.9 71 3.2 SSE 7 11 4 6 1015.8 - 0.0
02/07:30am 18.8 18.6 14.8 77 2.4 SSE 9 11 5 6 1015.5 - 0.0
02/07:00am 17.9 17.6 14.4 80 2.1 S 9 13 5 7 1014.9 - 0.0
02/06:30am 18.0 17.2 13.9 77 2.4 S 11 17 6 9 1014.6 - 0.0
02/06:00am 18.1 17.3 14.0 77 2.4 S 11 17 6 9 1014.4 1011.3 0.0
02/05:30am 18.3 17.8 13.9 75 2.6 SSW 9 13 5 7 1014.1 - 0.0
02/05:00am 18.9 18.1 14.0 73 2.9 SSW 11 15 6 8 1013.6 - 0.0
02/04:30am 19.1 18.7 14.2 73 2.9 S 9 13 5 7 1013.6 - 0.0
02/04:00am 19.3 18.3 14.6 74 2.8 S 13 19 7 10 1013.6 - 0.0
02/03:30am 19.5 19.0 15.0 75 2.7 S 11 15 6 8 1013.4 - 0.0
02/03:00am 19.7 20.1 15.4 76 2.6 S 7 11 4 6 1013.4 1010.3 0.0
02/02:30am 19.8 20.4 15.9 78 2.4 SSE 7 11 4 6 1013.8 - 0.0
02/02:00am 19.9 21.0 17.0 83 1.8 SSE 7 9 4 5 1013.6 - 0.0
02/01:30am 19.8 20.8 17.7 88 1.3 SE 9 13 5 7 1013.6 - 0.0
02/01:00am 20.3 21.6 18.4 89 1.2 SSE 9 13 5 7 1013.8 - 0.0
02/12:30am 20.8 23.2 18.8 88 1.3 SE 4 7 2 4 1013.8 - 0.0
02/12:00am 20.7 23.7 18.5 87 1.4 CALM 0 7 0 4 1013.7 1010.7 0.0
 
Date/Time
EDT
Temp
°C
App
Temp
°C
Dew
Point
Rel
Hum
%
Delta-T
°C
Wind Press
QNH
hPa
Press
MSL
hPa
Rain
since 9 am
mm
Dir
 
Spd
km/h
Gust
km/h
Spd
kts
Gust
kts
01/11:30pm 21.1 23.9 18.8 87 1.5 S 2 7 1 4 1013.7 - 0.0
01/11:00pm 21.4 24.5 18.6 84 1.8 CALM 0 0 0 0 1013.4 - 0.0
01/10:30pm 21.6 24.9 19.0 85 1.7 CALM 0 0 0 0 1013.6 - 0.0

Other Formats:

Comma delimited format used in spreadsheet applications
http://www.bom.gov.au/fwo/IDN60801/IDN60801.94541.axf

JavaScript Object Notation format (JSON) in row-major order
http://www.bom.gov.au/fwo/IDN60801/IDN60801.94541.json